Terminal Aerodrome Forecast
Issued by NWS Dodge City, KS

Home | Current Version | Previous Version | Graphics & Text | Print | Product List | Glossary Off
Versions: 1 2 3 4 5 6 7 8 9 10 11 12 13 14 15 16 17 18 19 20 21 22 23 24 25 26 27 28 29 30

000
FTUS43 KDDC 032334
TAFDDC
TAF
KDDC 032334Z 0400/0424 03014KT P6SM OVC025
     FM040600 03018G25KT 6SM -SN OVC025
     FM040900 03015G25KT 2SM -SN OVC015
     FM042000 03015G22KT 6SM -SN OVC015=

USA.gov is the U.S. government's official web portal to all federal, state and local government web resources and services.